R.l. Enterkin — WDD9628 — position and weather

sailwx.info

Track history (hours):
 
Tides and Currents Weather Stations Pressure Air Temp Water Temp Dewpoint Dewpoint Depression Visibility Wind Speed Wind Dir Waves Ship Positions

R.l. Enterkin

More information available from US FCC via Universal Licensing System and Coast Guard Vessel Documentation Center.

Last reported at 2014-Jul-13 19:31 UTC. Time now 2014-Jul-23 03:44 UTC.
Position N 35°46' W 075°34'.
Warning: this ship's position is 9 days out of date.

Length 60 m; draft 2.6 m.

Type: Tug. MMSI: 367314080.

Date/timePositionNaut miles runAvg speedWind from/ knotsBaromVisibWave heightAir tempDewpointWater temp
2014-Jul-13 19:31N 35°46' W 075°34'0 0.0
2014-Jul-13 18:23N 35°46' W 075°34'1 1.5
2014-Jul-13 17:33N 35°46' W 075°32'3 1.8
2014-Jul-13 16:11N 35°45' W 075°30'4 6.2
2014-Jul-13 15:33N 35°41' W 075°28'4 1.9
2014-Jul-13 13:33N 35°38' W 075°28'9 4.0
2014-Jul-13 11:16N 35°46' W 075°32'2 2.4
2014-Jul-13 10:32N 35°46' W 075°34'0 0.0
2014-Jul-13 04:13N 35°46' W 075°34'0 0.0
2014-Jul-13 03:08N 35°46' W 075°34'0 0.0
2014-Jul-13 02:32N 35°46' W 075°34'  
Track history (hours):
 
Tides and Currents Weather Stations Pressure Air Temp Water Temp Dewpoint Dewpoint Depression Visibility Wind Speed Wind Dir Waves Ship Positions

R.l. Enterkin

More information available from US FCC via Universal Licensing System and Coast Guard Vessel Documentation Center.

Last reported at 2014-Jul-13 19:31 UTC. Time now 2014-Jul-23 03:44 UTC.
Position N 35°46' W 075°34'.
Warning: this ship's position is 9 days out of date.

Length 60 m; draft 2.6 m.

Type: Tug. MMSI: 367314080.

Date/timePositionNaut miles runAvg speedWind from/ knotsBaromVisibWave heightAir tempDewpointWater temp
2014-Jul-13 19:31N 35°46' W 075°34'0 0.0
2014-Jul-13 18:23N 35°46' W 075°34'1 1.5
2014-Jul-13 17:33N 35°46' W 075°32'3 1.8
2014-Jul-13 16:11N 35°45' W 075°30'4 6.2
2014-Jul-13 15:33N 35°41' W 075°28'4 1.9
2014-Jul-13 13:33N 35°38' W 075°28'9 4.0
2014-Jul-13 11:16N 35°46' W 075°32'2 2.4
2014-Jul-13 10:32N 35°46' W 075°34'0 0.0
2014-Jul-13 04:13N 35°46' W 075°34'0 0.0
2014-Jul-13 03:08N 35°46' W 075°34'0 0.0
2014-Jul-13 02:32N 35°46' W 075°34'  

Dump ship's entire track history